Terminal Aerodrome Forecast
Issued by NWS Sterling, VA

Current Version | Previous Version | Text Only | Print | Product List | Glossary Off
Versions: 1 2 3 4 5 6 7 8 9 10 11 12 13 14 15 16 17 18 19 20 21 22

000
FTUS41 KLWX 160837 AAA
TAFMRB
TAF AMD
KMRB 160837Z 1609/1706 00000KT P6SM OVC035
     FM161500 14004KT P6SM OVC015
     FM170000 12001KT 4SM BR OVC007=

USA.gov is the U.S. government's official web portal to all federal, state and local government web resources and services.